Time;durP1;ratioP1;P1;durP2;ratioP2;P2;SDS_P1;SDS_P2;PMS_P1;PMS_P2;Temp;Humidity;BMP_temperature;BMP_pressure;BME280_temperature;BME280_humidity;BME280_pressure;Samples;Min_cycle;Max_cycle;Signal;HPM_P1;HPM_P2
2024/01/04 00:02:13;;;;;;;;;2.00;2.00;;;;;10.87;68.97;100035.75;4974842;28;45495;-64
2024/01/04 00:04:40;;;;;;;;;2.33;1.33;;;;;10.75;69.12;100007.06;4977704;28;45368;-64
2024/01/04 00:07:06;;;;;;;;;1.00;1.00;;;;;10.71;69.04;100011.47;4977892;28;45466;-63
2024/01/04 00:09:31;;;;;;;;;2.00;2.00;;;;;10.83;69.36;100037.53;4976250;28;46106;-65
2024/01/04 00:11:57;;;;;;;;;2.00;1.00;;;;;10.81;69.09;100043.66;4976726;28;45427;-63
2024/01/04 00:14:22;;;;;;;;;6.00;2.00;;;;;10.80;68.96;100045.41;4977002;28;45592;-63
2024/01/04 00:16:48;;;;;;;;;6.33;1.67;;;;;10.79;69.15;100046.28;4977354;28;45365;-64
2024/01/04 00:19:14;;;;;;;;;2.00;1.67;;;;;10.79;69.48;100050.66;4975527;28;47769;-64
2024/01/04 00:21:40;;;;;;;;;3.67;2.33;;;;;10.81;69.06;100044.53;4978436;28;45355;-63
2024/01/04 00:24:06;;;;;;;;;2.33;2.00;;;;;10.78;69.07;100038.47;4977675;28;45460;-64
2024/01/04 00:26:32;;;;;;;;;1.00;1.00;;;;;10.77;69.10;100055.94;4977296;28;45410;-65
2024/01/04 00:28:58;;;;;;;;;5.00;1.00;;;;;10.76;68.95;100061.19;4975265;28;47708;-63
2024/01/04 00:31:23;;;;;;;;;5.00;1.00;;;;;10.73;68.92;100058.59;4976387;28;45534;-65
2024/01/04 00:33:49;;;;;;;;;1.67;1.00;;;;;10.67;69.11;100059.50;4976475;28;45506;-63
2024/01/04 00:36:15;;;;;;;;;2.67;1.00;;;;;10.72;68.72;100067.31;4978696;28;45277;-65
2024/01/04 00:38:40;;;;;;;;;1.67;1.33;;;;;10.71;68.91;100074.31;4977821;28;45280;-66
2024/01/04 00:41:06;;;;;;;;;5.67;3.00;;;;;10.67;69.24;100080.47;4976708;28;45343;-65
2024/01/04 00:43:31;;;;;;;;;5.00;1.00;;;;;10.70;69.04;100084.78;4977812;28;45433;-65
2024/01/04 00:45:58;;;;;;;;;1.00;1.00;;;;;10.66;69.37;100086.59;4978162;28;45363;-63
2024/01/04 00:48:24;;;;;;;;;4.00;2.00;;;;;10.57;69.17;100069.19;4976499;28;46467;-65
2024/01/04 00:50:49;;;;;;;;;7.67;1.00;;;;;10.65;69.47;100086.59;4977619;28;45474;-66
2024/01/04 00:53:15;;;;;;;;;1.33;1.00;;;;;10.64;69.85;100080.50;4976333;28;45532;-65
2024/01/04 00:55:41;;;;;;;;;1.00;1.00;;;;;10.66;69.17;100083.09;4978305;28;45304;-65
2024/01/04 00:58:06;;;;;;;;;1.67;1.00;;;;;10.60;68.87;100091.88;4958533;28;46804;-64
2024/01/04 01:00:32;;;;;;;;;4.67;1.33;;;;;10.55;69.20;100080.56;4976524;28;45363;-64
2024/01/04 01:03:01;;;;;;;;;3.33;1.00;;;;;10.66;69.30;100098.81;4975124;28;45587;-65
2024/01/04 01:05:26;;;;;;;;;1.67;1.33;;;;;10.60;69.13;100100.59;4976688;28;45366;-65
2024/01/04 01:07:52;;;;;;;;;4.67;1.00;;;;;10.63;68.61;100102.34;4975079;28;46129;-65
2024/01/04 01:10:17;;;;;;;;;4.67;1.00;;;;;10.75;68.71;100128.44;4975216;28;45497;-64
2024/01/04 01:12:43;;;;;;;;;1.67;1.00;;;;;10.75;68.77;100123.19;4974472;28;45797;-63
2024/01/04 01:15:09;;;;;;;;;3.00;1.00;;;;;10.76;69.01;100132.75;4975630;28;45542;-64
2024/01/04 01:17:35;;;;;;;;;4.67;2.00;;;;;10.68;69.01;100123.22;4975379;28;45535;-64
2024/01/04 01:20:00;;;;;;;;;2.00;0.00;;;;;10.74;69.03;100131.91;4976100;28;45394;-65
2024/01/04 01:22:26;;;;;;;;;5.00;1.00;;;;;10.74;69.03;100133.66;4977466;28;45422;-65
2024/01/04 01:24:53;;;;;;;;;3.33;1.67;;;;;10.53;68.88;100093.66;4980031;28;45490;-64
2024/01/04 01:27:18;;;;;;;;;2.00;1.00;;;;;10.63;68.90;100117.16;4978878;28;45586;-64
2024/01/04 01:29:44;;;;;;;;;1.00;1.00;;;;;10.70;69.53;100132.84;4979523;28;45361;-65
2024/01/04 01:32:10;;;;;;;;;3.33;2.33;;;;;10.69;69.64;100138.94;4979670;28;45455;-65
2024/01/04 01:34:35;;;;;;;;;2.67;2.00;;;;;10.62;69.67;100129.38;4981472;28;45437;-63
2024/01/04 01:37:01;;;;;;;;;3.00;1.00;;;;;10.67;69.64;100153.78;4979769;28;46148;-65
2024/01/04 01:39:26;;;;;;;;;3.00;1.67;;;;;10.53;69.11;100116.38;4979383;28;45414;-64
2024/01/04 01:41:52;;;;;;;;;2.00;2.00;;;;;10.63;68.91;100151.19;4979059;28;45529;-63
2024/01/04 01:44:18;;;;;;;;;5.00;1.00;;;;;10.61;69.61;100148.63;4980840;28;45427;-64
2024/01/04 01:46:44;;;;;;;;;3.33;1.33;;;;;10.49;68.98;100133.88;4977669;28;46733;-65
2024/01/04 01:49:10;;;;;;;;;1.33;1.00;;;;;10.59;69.45;100153.00;4979675;28;45451;-66
2024/01/04 01:51:36;;;;;;;;;3.00;0.00;;;;;10.60;68.83;100167.81;4979103;28;45585;-65
2024/01/04 01:54:04;;;;;;;;;5.00;0.67;;;;;10.56;68.72;100161.75;4980311;28;45837;-65
2024/01/04 01:56:30;;;;;;;;;3.33;1.00;;;;;10.59;68.90;100168.72;4979056;28;46287;-65
2024/01/04 01:58:59;;;;;;;;;2.00;0.33;;;;;10.55;69.10;100162.59;4978816;28;45331;-66
2024/01/04 02:01:25;;;;;;;;;3.33;1.00;;;;;10.52;68.72;100160.03;4978647;28;45501;-66
2024/01/04 02:03:50;;;;;;;;;4.00;0.67;;;;;10.59;69.13;100176.56;4978981;28;45563;-64
2024/01/04 02:06:16;;;;;;;;;0.00;0.00;;;;;10.55;69.09;100180.06;4975804;28;46635;-66
2024/01/04 02:08:46;;;;;;;;;2.00;1.00;;;;;10.53;68.94;100169.59;4977758;28;45517;-64
2024/01/04 02:11:11;;;;;;;;;2.33;1.00;;;;;10.57;69.52;100189.66;4980387;28;45501;-65
2024/01/04 02:13:37;;;;;;;;;1.00;0.00;;;;;10.47;69.68;100174.91;4979284;28;45348;-65
2024/01/04 02:16:03;;;;;;;;;3.33;3.00;;;;;10.56;69.57;100201.03;4978670;28;45667;-66
2024/01/04 02:18:29;;;;;;;;;3.67;1.00;;;;;10.55;69.77;100198.41;4978759;28;45343;-64
2024/01/04 02:20:54;;;;;;;;;1.00;1.00;;;;;10.46;69.97;100191.47;4979082;28;45466;-65
2024/01/04 02:23:20;;;;;;;;;2.33;1.33;;;;;10.55;69.36;100211.50;4980485;28;45601;-64
2024/01/04 02:25:45;;;;;;;;;5.00;2.00;;;;;10.54;69.32;100222.88;4979762;28;46124;-64
2024/01/04 02:28:11;;;;;;;;;6.00;1.00;;;;;10.53;69.31;100219.34;4978819;28;45368;-65
2024/01/04 02:30:36;;;;;;;;;2.33;0.67;;;;;10.44;69.52;100206.34;4977649;28;45332;-67
2024/01/04 02:33:02;;;;;;;;;1.67;0.67;;;;;10.51;69.44;100226.38;4979472;28;45518;-64
2024/01/04 02:35:28;;;;;;;;;2.00;1.00;;;;;10.50;69.45;100229.84;4977040;28;47178;-64
2024/01/04 02:37:53;;;;;;;;;3.00;1.00;;;;;10.48;69.38;100221.13;4976869;28;45494;-65
2024/01/04 02:40:21;;;;;;;;;2.00;1.00;;;;;10.43;69.40;100227.28;4978618;28;45508;-64
2024/01/04 02:42:47;;;;;;;;;4.00;1.00;;;;;10.39;69.32;100222.06;4978529;28;45510;-66
2024/01/04 02:45:15;;;;;;;;;3.33;2.00;;;;;10.27;69.22;100213.38;4977332;28;47986;-64
2024/01/04 02:47:42;;;;;;;;;0.33;0.00;;;;;10.38;69.23;100240.41;4978547;28;45478;-65
2024/01/04 02:50:08;;;;;;;;;2.00;1.00;;;;;10.34;69.09;100230.81;4978121;28;45447;-64
2024/01/04 02:52:34;;;;;;;;;1.33;1.00;;;;;10.37;68.75;100230.81;4977529;28;45531;-65
2024/01/04 02:54:59;;;;;;;;;3.33;1.00;;;;;10.35;68.80;100243.03;4978192;28;46145;-64
2024/01/04 02:57:25;;;;;;;;;0.00;0.00;;;;;10.45;68.65;100257.81;4979098;28;45539;-66
2024/01/04 02:59:51;;;;;;;;;5.00;0.00;;;;;10.42;68.75;100260.44;4964309;28;45463;-64
2024/01/04 03:02:16;;;;;;;;;3.33;0.00;;;;;10.42;68.50;100256.94;4978743;28;45352;-63
2024/01/04 03:04:43;;;;;;;;;5.00;2.00;;;;;10.45;68.50;100256.94;4978507;28;45439;-65
2024/01/04 03:07:08;;;;;;;;;3.00;1.00;;;;;10.48;68.75;100267.41;4977594;28;45507;-64
2024/01/04 03:09:34;;;;;;;;;2.33;1.00;;;;;10.43;68.12;100251.72;4978805;28;45320;-66
2024/01/04 03:12:00;;;;;;;;;2.00;0.33;;;;;10.49;68.58;100264.78;4978017;28;45632;-64
2024/01/04 03:14:25;;;;;;;;;0.00;0.00;;;;;10.54;68.29;100268.25;4979364;28;45477;-64
2024/01/04 03:16:51;;;;;;;;;1.33;1.00;;;;;10.49;68.02;100262.16;4979576;28;45412;-64
2024/01/04 03:19:16;;;;;;;;;3.33;1.00;;;;;10.63;68.52;100274.28;4978982;28;45332;-64
2024/01/04 03:21:42;;;;;;;;;3.00;0.00;;;;;10.60;68.14;100264.72;4978624;28;45454;-64
2024/01/04 03:24:08;;;;;;;;;4.33;0.33;;;;;10.69;68.16;100261.19;4977944;28;46206;-65
2024/01/04 03:26:33;;;;;;;;;2.00;1.00;;;;;10.75;68.22;100293.44;4977645;28;45546;-64
2024/01/04 03:28:59;;;;;;;;;2.67;1.67;;;;;10.78;67.90;100298.66;4976670;28;45288;-65
2024/01/04 03:31:24;;;;;;;;;1.00;1.00;;;;;10.75;67.58;100282.97;4978585;28;45459;-64
2024/01/04 03:33:51;;;;;;;;;3.00;0.33;;;;;10.81;68.20;100289.91;4978645;28;45220;-65
2024/01/04 03:36:17;;;;;;;;;1.33;0.67;;;;;10.81;67.70;100290.78;4978363;28;45970;-65
2024/01/04 03:38:43;;;;;;;;;1.00;1.00;;;;;10.84;67.81;100279.41;4979389;28;45380;-64
2024/01/04 03:41:08;;;;;;;;;2.67;0.33;;;;;10.74;67.76;100278.59;4979533;28;45440;-63
2024/01/04 03:43:34;;;;;;;;;1.00;0.33;;;;;10.86;68.20;100295.13;4979014;28;46449;-64
2024/01/04 03:46:00;;;;;;;;;2.33;1.00;;;;;10.86;68.40;100295.13;4977676;28;45600;-65
2024/01/04 03:48:25;;;;;;;;;1.67;1.00;;;;;10.85;67.83;100294.25;4977705;28;45451;-65
2024/01/04 03:50:51;;;;;;;;;2.00;0.00;;;;;10.88;69.25;100289.00;4978980;28;45514;-63
2024/01/04 03:53:16;;;;;;;;;0.00;0.00;;;;;10.80;68.78;100277.69;4978011;28;45438;-65
2024/01/04 03:55:42;;;;;;;;;6.00;1.00;;;;;10.88;68.73;100280.25;4977554;28;46519;-64
2024/01/04 03:58:07;;;;;;;;;5.67;1.00;;;;;10.92;68.20;100297.72;4977070;28;45537;-65
2024/01/04 04:00:33;;;;;;;;;0.67;0.67;;;;;10.90;68.61;100291.63;4977892;28;45450;-65
2024/01/04 04:02:58;;;;;;;;;3.67;1.00;;;;;10.93;72.10;100297.69;4977986;28;46937;-64
2024/01/04 04:05:24;;;;;;;;;1.33;0.33;;;;;10.88;68.78;100282.88;4977196;28;45355;-65
2024/01/04 04:07:50;;;;;;;;;0.00;0.00;;;;;10.90;68.17;100291.63;4978596;28;45173;-65
2024/01/04 04:10:16;;;;;;;;;1.67;1.00;;;;;10.88;68.43;100302.09;4978876;28;45259;-65
2024/01/04 04:12:45;;;;;;;;;3.67;1.00;;;;;10.79;68.51;100289.91;4975041;28;46574;-66
2024/01/04 04:15:10;;;;;;;;;4.00;1.00;;;;;10.81;68.90;100301.25;4975519;28;45554;-64
2024/01/04 04:17:36;;;;;;;;;2.00;1.00;;;;;10.75;68.28;100292.59;4976190;28;45624;-65
2024/01/04 04:20:02;;;;;;;;;2.67;0.00;;;;;10.75;68.12;100297.81;4975487;28;45447;-65
2024/01/04 04:22:38;;;;;;;;;3.33;1.33;;;;;10.73;68.30;100297.81;4975720;28;46765;-64
2024/01/04 04:25:04;;;;;;;;;5.33;3.33;;;;;10.78;68.19;100310.88;4968848;28;45356;-64
2024/01/04 04:27:30;;;;;;;;;4.67;2.33;;;;;10.74;67.83;100315.25;4976081;28;46192;-63
2024/01/04 04:29:56;;;;;;;;;4.00;1.00;;;;;10.73;68.25;100317.91;4963897;28;45253;-64
2024/01/04 04:32:21;;;;;;;;;6.00;2.00;;;;;10.70;68.22;100318.81;4976641;28;46144;-64
2024/01/04 04:34:47;;;;;;;;;2.33;2.00;;;;;10.63;68.04;100313.56;4977383;28;45356;-64
2024/01/04 04:37:14;;;;;;;;;2.67;2.00;;;;;10.71;68.31;100332.75;4977275;28;45324;-65
2024/01/04 04:39:39;;;;;;;;;3.67;1.00;;;;;10.67;68.13;100326.66;4975653;28;45510;-66
2024/01/04 04:42:05;;;;;;;;;2.67;0.00;;;;;10.69;67.86;100339.75;4976634;28;45576;-64
2024/01/04 04:44:31;;;;;;;;;3.00;0.33;;;;;10.67;67.96;100331.03;4977127;28;45335;-65
2024/01/04 04:46:57;;;;;;;;;2.33;0.00;;;;;10.59;68.21;100331.06;4976669;28;45585;-63
2024/01/04 04:49:22;;;;;;;;;4.67;3.00;;;;;10.60;68.21;100335.41;4976890;28;45383;-66
2024/01/04 04:51:51;;;;;;;;;2.00;0.00;;;;;10.52;68.36;100327.59;4976868;28;45491;-64
2024/01/04 04:54:17;;;;;;;;;5.00;1.67;;;;;10.51;68.58;100330.22;4975474;28;45433;-63
2024/01/04 04:56:43;;;;;;;;;4.33;1.00;;;;;10.35;68.84;100306.72;4980009;28;45415;-64
2024/01/04 04:59:09;;;;;;;;;1.00;1.00;;;;;10.46;68.65;100337.22;4980353;28;45438;-65
2024/01/04 05:01:35;;;;;;;;;2.00;2.00;;;;;10.40;69.04;100335.50;4979812;28;46382;-65
2024/01/04 05:04:01;;;;;;;;;1.33;0.33;;;;;10.45;68.45;100345.97;4979832;28;45517;-64
2024/01/04 05:06:26;;;;;;;;;2.67;0.00;;;;;10.43;68.74;100339.88;4978590;28;45348;-65
2024/01/04 05:08:52;;;;;;;;;1.00;1.00;;;;;10.39;69.11;100342.50;4978434;28;45666;-63
2024/01/04 05:11:18;;;;;;;;;1.00;1.00;;;;;10.36;69.06;100345.09;4979865;28;45387;-64
2024/01/04 05:13:43;;;;;;;;;2.67;1.00;;;;;10.10;69.41;100298.03;4979162;28;45416;-64
2024/01/04 05:16:09;;;;;;;;;2.00;1.00;;;;;10.36;69.22;100358.19;4980140;28;45581;-64
2024/01/04 05:18:34;;;;;;;;;5.00;2.67;;;;;10.31;69.26;100349.50;4978773;28;45405;-66
2024/01/04 05:21:00;;;;;;;;;4.00;1.00;;;;;10.29;69.17;100350.38;4991650;28;47707;-64
2024/01/04 05:23:26;;;;;;;;;3.00;0.00;;;;;10.27;69.62;100357.31;4976159;28;45331;-65
2024/01/04 05:25:51;;;;;;;;;1.00;1.00;;;;;10.28;69.17;100362.59;4979580;28;45387;-64
2024/01/04 05:28:17;;;;;;;;;1.00;1.00;;;;;10.32;69.62;100364.34;4979763;28;45457;-63
2024/01/04 05:30:42;;;;;;;;;1.00;1.00;;;;;10.33;69.64;100368.69;4979451;28;46401;-64
2024/01/04 05:33:08;;;;;;;;;1.67;1.00;;;;;10.26;69.52;100363.44;4979322;28;45440;-65
2024/01/04 05:35:34;;;;;;;;;3.00;1.00;;;;;10.34;69.54;100378.25;4979263;28;45380;-65
2024/01/04 05:37:59;;;;;;;;;2.33;0.33;;;;;10.34;69.59;100377.41;4978363;28;45399;-65
2024/01/04 05:40:25;;;;;;;;;1.50;1.00;;;;;10.34;69.07;100383.50;4981123;28;45618;-66
2024/01/04 05:42:52;;;;;;;;;2.00;1.00;;;;;10.22;69.36;100356.47;4980817;28;45438;-64
2024/01/04 05:45:17;;;;;;;;;1.00;1.00;;;;;10.34;69.53;100380.03;4980934;28;45573;-64
2024/01/04 05:47:43;;;;;;;;;5.00;2.00;;;;;10.34;69.36;100374.78;4978716;28;45510;-64
2024/01/04 05:50:09;;;;;;;;;2.33;1.00;;;;;10.03;69.51;100324.25;4977958;28;47183;-66
2024/01/04 05:52:34;;;;;;;;;5.00;1.00;;;;;10.32;69.33;100382.66;4978091;28;45465;-64
2024/01/04 05:55:00;;;;;;;;;7.00;1.75;;;;;10.29;69.62;100377.41;4978021;28;45714;-66
2024/01/04 05:57:27;;;;;;;;;2.00;1.33;;;;;10.23;69.41;100382.66;4995177;28;45600;-64
2024/01/04 05:59:53;;;;;;;;;3.33;1.00;;;;;10.21;69.71;100383.53;4977833;28;48047;-64
2024/01/04 06:02:19;;;;;;;;;0.67;0.67;;;;;10.13;69.79;100384.41;4979214;28;45398;-65
2024/01/04 06:04:44;;;;;;;;;3.67;0.67;;;;;10.03;69.84;100374.81;4978989;28;45482;-65
2024/01/04 06:07:10;;;;;;;;;3.00;1.33;;;;;10.05;70.29;100378.31;4985347;28;45792;-65
2024/01/04 06:09:36;;;;;;;;;3.67;2.00;;;;;10.05;70.16;100385.28;4978881;28;46087;-64
2024/01/04 06:12:01;;;;;;;;;2.33;1.00;;;;;10.08;70.11;100393.13;4980501;28;45386;-64
2024/01/04 06:14:30;;;;;;;;;4.33;2.00;;;;;10.05;70.89;100396.63;4979082;28;45506;-64
2024/01/04 06:16:58;;;;;;;;;5.00;2.00;;;;;10.03;70.78;100403.59;4979141;28;45504;-65
2024/01/04 06:19:25;;;;;;;;;3.00;1.00;;;;;10.03;70.72;100402.72;4978551;28;45486;-64
2024/01/04 06:21:51;;;;;;;;;6.67;2.00;;;;;10.03;71.05;100403.59;4978540;28;45767;-65
2024/01/04 06:24:16;;;;;;;;;1.00;1.00;;;;;10.02;70.74;100401.88;4978360;28;45542;-65
2024/01/04 06:26:42;;;;;;;;;5.67;1.00;;;;;9.99;70.69;100404.50;4979030;28;45284;-64
2024/01/04 06:29:08;;;;;;;;;6.00;1.00;;;;;9.94;71.07;100399.28;4978658;28;46208;-65
2024/01/04 06:31:33;;;;;;;;;1.50;1.50;;;;;9.93;71.04;100388.78;4979723;28;45471;-65
2024/01/04 06:33:59;;;;;;;;;3.25;2.00;;;;;10.01;70.88;100410.56;4978747;28;45497;-65
2024/01/04 06:36:24;;;;;;;;;2.75;2.00;;;;;10.01;71.33;100414.94;4978741;28;45416;-65
2024/01/04 06:38:50;;;;;;;;;6.00;3.33;;;;;10.01;71.56;100420.19;4978228;28;46367;-66
2024/01/04 06:41:19;;;;;;;;;1.75;1.00;;;;;10.03;71.92;100423.66;4978601;28;45532;-65
2024/01/04 06:43:46;;;;;;;;;3.25;2.75;;;;;9.99;71.33;100409.72;4977518;28;45444;-64
2024/01/04 06:46:11;;;;;;;;;4.75;2.25;;;;;9.97;71.45;100416.72;4978720;28;45426;-64
2024/01/04 06:48:37;;;;;;;;;3.33;0.33;;;;;10.02;71.81;100424.56;4978284;28;46698;-65
2024/01/04 06:51:03;;;;;;;;;3.00;1.00;;;;;9.98;71.64;100429.75;4978368;28;45339;-65
2024/01/04 06:53:29;;;;;;;;;0.67;0.00;;;;;9.67;71.56;100375.72;4978680;28;45422;-64
2024/01/04 06:55:54;;;;;;;;;1.00;1.00;;;;;10.00;71.81;100435.00;4978960;28;45559;-64
2024/01/04 06:58:20;;;;;;;;;2.67;2.00;;;;;9.98;71.69;100429.75;4978722;28;46115;-64
2024/01/04 07:00:46;;;;;;;;;1.00;1.00;;;;;10.04;71.67;100425.44;4978407;28;46240;-64
2024/01/04 07:03:11;;;;;;;;;2.33;1.00;;;;;9.98;71.63;100416.69;4979737;28;45483;-65
2024/01/04 07:05:37;;;;;;;;;4.00;2.00;;;;;10.08;71.55;100438.47;4978111;28;45568;-64
2024/01/04 07:08:03;;;;;;;;;2.00;1.00;;;;;10.06;71.47;100432.41;4976666;28;45456;-66
2024/01/04 07:10:29;;;;;;;;;5.33;2.00;;;;;9.93;71.84;100422.81;4978520;28;45248;-66
2024/01/04 07:12:55;;;;;;;;;2.00;2.00;;;;;9.67;71.87;100394.91;4978655;28;45507;-66
2024/01/04 07:15:20;;;;;;;;;2.00;0.33;;;;;9.87;71.87;100430.63;4978186;28;45405;-64
2024/01/04 07:17:46;;;;;;;;;1.00;1.00;;;;;9.88;72.17;100442.88;4977517;28;45462;-65
2024/01/04 07:20:12;;;;;;;;;2.67;2.00;;;;;9.84;72.45;100447.22;4978748;28;45482;-65
2024/01/04 07:22:40;;;;;;;;;3.00;1.00;;;;;9.89;72.17;100468.13;4978186;28;45418;-65
2024/01/04 07:25:06;;;;;;;;;5.75;2.50;;;;;9.87;72.15;100452.47;4976734;28;45415;-64
2024/01/04 07:27:31;;;;;;;;;4.50;2.00;;;;;9.92;72.29;100466.41;4978624;28;45481;-65
2024/01/04 07:29:57;;;;;;;;;2.00;2.00;;;;;9.95;72.46;100465.53;4979381;28;45422;-65
2024/01/04 07:32:23;;;;;;;;;7.25;3.00;;;;;9.88;72.33;100453.34;4979052;28;45601;-64
2024/01/04 07:34:49;;;;;;;;;3.00;1.33;;;;;9.85;72.67;100441.13;4979146;28;45605;-64
2024/01/04 07:37:15;;;;;;;;;4.50;1.00;;;;;9.95;72.94;100466.41;4979039;28;45402;-65
2024/01/04 07:39:41;;;;;;;;;4.00;2.00;;;;;9.92;72.88;100457.69;4978554;28;45486;-65
2024/01/04 07:42:08;;;;;;;;;5.00;2.75;;;;;9.85;72.52;100446.34;4976636;28;45521;-63
2024/01/04 07:44:34;;;;;;;;;4.00;2.00;;;;;9.88;72.79;100445.47;4992514;28;45491;-65
2024/01/04 07:47:00;;;;;;;;;7.50;2.00;;;;;9.88;72.92;100454.19;4976762;28;45573;-64
2024/01/04 07:49:25;;;;;;;;;4.00;1.75;;;;;9.83;72.81;100444.63;4960014;28;45498;-63
2024/01/04 07:51:52;;;;;;;;;4.33;2.33;;;;;9.94;73.14;100462.06;4977233;28;45332;-64
2024/01/04 07:54:18;;;;;;;;;2.33;0.67;;;;;9.91;72.82;100453.31;4977787;28;45293;-64
2024/01/04 07:56:44;;;;;;;;;3.50;2.00;;;;;9.87;73.81;100457.69;4976709;28;45268;-65
2024/01/04 07:59:09;;;;;;;;;5.75;2.00;;;;;9.89;73.21;100450.69;4976125;28;46056;-64
2024/01/04 08:01:35;;;;;;;;;4.75;2.50;;;;;9.88;73.08;100448.09;4959917;28;45568;-64
2024/01/04 08:04:01;;;;;;;;;2.00;2.00;;;;;9.96;73.02;100454.19;4971595;28;45749;-64
2024/01/04 08:06:26;;;;;;;;;3.50;2.00;;;;;9.96;73.07;100452.44;4970085;28;45563;-64
2024/01/04 08:08:52;;;;;;;;;3.00;2.25;;;;;10.00;73.05;100444.59;4975953;28;45410;-62
2024/01/04 08:11:19;;;;;;;;;2.67;2.33;;;;;10.04;72.82;100451.59;4975751;28;45589;-64
2024/01/04 08:13:45;;;;;;;;;6.25;2.00;;;;;10.11;72.65;100456.81;4976726;28;45309;-65
2024/01/04 08:16:11;;;;;;;;;6.00;1.50;;;;;10.34;71.96;100455.94;4976268;28;46123;-63
2024/01/04 08:18:37;;;;;;;;;1.67;1.67;;;;;10.65;71.62;100456.75;4976841;28;45442;-62
2024/01/04 08:21:04;;;;;;;;;5.67;2.67;;;;;10.98;70.31;100463.59;4976826;28;45481;-65
2024/01/04 08:23:31;;;;;;;;;2.00;1.00;;;;;11.34;69.13;100456.47;4975682;28;45371;-63
2024/01/04 08:25:56;;;;;;;;;2.00;1.33;;;;;11.71;68.51;100455.38;4975778;28;47609;-63
2024/01/04 08:28:22;;;;;;;;;4.00;1.00;;;;;12.08;66.75;100448.97;4977643;28;45313;-63
2024/01/04 08:30:48;;;;;;;;;5.00;3.00;;;;;12.55;65.80;100443.25;4976082;28;46098;-63
2024/01/04 08:33:14;;;;;;;;;5.00;2.67;;;;;13.08;64.54;100450.53;4970223;28;45768;-63
2024/01/04 08:35:43;;;;;;;;;3.00;1.67;;;;;13.68;63.08;100446.22;4991866;28;46779;-64
2024/01/04 08:38:09;;;;;;;;;1.67;1.67;;;;;14.31;60.69;100442.53;4975500;28;45411;-63
2024/01/04 08:40:36;;;;;;;;;4.00;2.00;;;;;14.83;59.49;100445.06;4975019;28;45555;-64
2024/01/04 08:43:03;;;;;;;;;5.00;4.00;;;;;15.23;57.42;100424.88;4977260;28;45513;-63
2024/01/04 08:45:29;;;;;;;;;3.00;3.00;;;;;15.95;56.36;100440.88;4976217;28;45745;-63
2024/01/04 08:47:54;;;;;;;;;3.33;3.33;;;;;16.56;54.95;100402.22;4975000;28;45367;-64
2024/01/04 08:50:21;;;;;;;;;4.00;3.00;;;;;17.27;52.92;100439.88;4976575;28;45303;-62
2024/01/04 08:52:47;;;;;;;;;5.33;2.00;;;;;17.83;52.14;100439.06;4976996;28;45308;-65
2024/01/04 08:55:13;;;;;;;;;4.00;3.00;;;;;18.27;50.11;100437.56;4975437;28;45399;-65
2024/01/04 08:57:39;;;;;;;;;6.00;6.00;;;;;18.57;48.64;100437.41;4976329;28;45338;-64
2024/01/04 09:00:05;;;;;;;;;3.67;3.00;;;;;19.21;47.87;100434.16;4977909;28;45553;-64
2024/01/04 09:02:31;;;;;;;;;7.00;2.33;;;;;19.43;45.89;100391.69;4977260;28;45509;-64
2024/01/04 09:04:57;;;;;;;;;8.67;3.00;;;;;19.81;45.47;100429.16;4991857;28;47727;-65
2024/01/04 09:07:22;;;;;;;;;4.67;2.00;;;;;20.10;44.66;100426.16;4974682;28;45516;-65
2024/01/04 09:09:48;;;;;;;;;4.00;2.67;;;;;19.55;45.42;100431.06;4976645;28;45390;-66
2024/01/04 09:12:15;;;;;;;;;3.00;3.00;;;;;19.15;45.38;100434.41;4975925;28;45471;-65
2024/01/04 09:14:40;;;;;;;;;11.33;3.00;;;;;18.34;47.16;100440.84;4975539;28;45584;-67
2024/01/04 09:17:06;;;;;;;;;4.33;3.00;;;;;18.75;47.04;100449.16;4976263;28;45365;-63
2024/01/04 09:19:31;;;;;;;;;5.33;3.00;;;;;19.75;45.27;100418.81;4976453;28;45362;-63
2024/01/04 09:21:57;;;;;;;;;5.33;2.67;;;;;20.93;43.63;100438.50;4976234;28;45502;-63
2024/01/04 09:24:23;;;;;;;;;9.00;3.00;;;;;21.44;41.83;100433.50;4975598;28;46110;-63
2024/01/04 09:26:49;;;;;;;;;6.67;3.00;;;;;20.82;42.17;100437.28;4974751;28;45190;-63
2024/01/04 09:29:18;;;;;;;;;3.33;2.33;;;;;19.96;43.15;100433.00;4976180;28;45423;-61
2024/01/04 09:31:43;;;;;;;;;6.00;3.67;;;;;19.01;44.75;100417.22;4976474;28;45406;-62
2024/01/04 09:34:09;;;;;;;;;5.67;2.67;;;;;18.37;46.02;100436.31;4975830;28;46024;-64
2024/01/04 09:36:35;;;;;;;;;8.00;3.33;;;;;18.05;46.95;100445.38;4975970;28;45569;-63
2024/01/04 09:39:05;;;;;;;;;4.67;3.00;;;;;17.48;47.88;100436.56;4975985;28;45411;-64
2024/01/04 09:41:44;;;;;;;;;7.33;2.67;;;;;17.24;48.52;100447.94;4975969;28;45275;-65
2024/01/04 09:44:11;;;;;;;;;4.33;3.67;;;;;17.32;48.75;100451.19;4978493;28;46346;-63
2024/01/04 09:46:38;;;;;;;;;4.00;3.00;;;;;17.77;48.48;100455.97;4977789;28;45669;-62
2024/01/04 09:49:06;;;;;;;;;7.00;4.00;;;;;18.47;46.57;100420.94;4979205;28;45470;-63
2024/01/04 09:51:39;;;;;;;;;5.00;4.33;;;;;19.98;44.85;100442.63;4979040;28;45347;-64
2024/01/04 09:54:09;;;;;;;;;2.67;2.67;;;;;21.88;41.93;100438.47;4980214;28;45556;-64
2024/01/04 09:56:46;;;;;;;;;6.67;2.00;;;;;23.18;39.99;100422.81;4980652;28;45449;-64
2024/01/04 09:59:12;;;;;;;;;4.00;3.33;;;;;23.79;38.09;100428.34;4979528;28;45551;-62
2024/01/04 10:01:38;;;;;;;;;7.33;4.67;;;;;22.85;38.51;100407.66;4979531;28;45344;-66
2024/01/04 10:04:06;;;;;;;;;7.33;4.00;;;;;23.49;38.16;100429.97;4979085;28;45474;-66
2024/01/04 10:06:34;;;;;;;;;9.00;6.00;;;;;23.86;37.54;100424.34;4976793;28;45447;-65
2024/01/04 10:09:20;;;;;;;;;5.75;3.50;;;;;22.92;38.61;100423.34;4980570;28;45304;-65
2024/01/04 10:12:05;;;;;;;;;7.75;4.75;;;;;21.37;40.31;100408.91;4969620;28;45557;-65
2024/01/04 10:14:31;;;;;;;;;5.75;3.50;;;;;20.20;43.07;100436.41;4977313;28;46748;-64
2024/01/04 10:16:57;;;;;;;;;5.00;3.00;;;;;18.99;45.07;100429.69;4978526;28;45506;-65
2024/01/04 10:19:23;;;;;;;;;3.33;3.33;;;;;18.01;46.96;100428.72;4979002;28;45638;-64
2024/01/04 10:21:49;;;;;;;;;5.67;4.00;;;;;17.04;48.89;100422.94;4979233;28;45324;-64
2024/01/04 10:24:23;;;;;;;;;8.00;5.00;;;;;16.20;50.85;100410.25;4978645;28;45425;-64
2024/01/04 10:26:59;;;;;;;;;9.33;4.00;;;;;15.49;53.03;100426.94;4978679;28;45249;-64
2024/01/04 10:29:26;;;;;;;;;6.33;3.67;;;;;14.89;54.98;100409.78;4977375;28;45372;-63
2024/01/04 10:32:02;;;;;;;;;5.33;2.67;;;;;14.56;56.25;100429.78;4980142;28;45521;-66
2024/01/04 10:34:28;;;;;;;;;5.00;3.00;;;;;14.20;57.16;100419.00;4978969;28;45506;-65
2024/01/04 10:37:06;;;;;;;;;7.00;5.00;;;;;14.02;58.52;100419.31;4978635;28;45473;-64
2024/01/04 10:39:31;;;;;;;;;6.33;4.00;;;;;13.77;59.15;100425.00;4977430;28;45351;-64
2024/01/04 10:42:01;;;;;;;;;8.00;3.67;;;;;13.51;60.33;100428.91;4978427;28;45525;-65
2024/01/04 10:44:27;;;;;;;;;4.00;4.00;;;;;13.22;61.34;100415.28;4978366;28;46990;-65
2024/01/04 10:46:55;;;;;;;;;7.33;5.00;;;;;13.09;62.33;100412.81;4978435;28;45430;-66
2024/01/04 10:49:23;;;;;;;;;4.33;3.00;;;;;13.04;62.70;100406.75;4979081;28;45356;-67
2024/01/04 10:51:51;;;;;;;;;6.33;3.00;;;;;12.91;63.33;100411.31;4978649;28;45591;-67
2024/01/04 10:54:18;;;;;;;;;6.00;5.33;;;;;12.73;64.30;100415.03;4977768;28;46483;-67
2024/01/04 10:56:45;;;;;;;;;10.67;3.00;;;;;12.50;64.95;100402.16;4993605;28;45531;-68
2024/01/04 10:59:12;;;;;;;;;4.00;4.00;;;;;12.29;65.74;100403.25;4978356;28;45545;-65
2024/01/04 11:01:40;;;;;;;;;6.33;4.00;;;;;12.21;66.57;100398.97;4978168;28;45561;-66
2024/01/04 11:04:06;;;;;;;;;5.67;4.67;;;;;11.99;67.31;100391.31;4978217;28;46298;-64
2024/01/04 11:06:39;;;;;;;;;5.00;4.00;;;;;12.02;70.06;100406.16;4979087;28;45279;-63
2024/01/04 11:09:06;;;;;;;;;9.00;6.67;;;;;12.06;67.87;100394.75;4977018;28;45384;-64
2024/01/04 11:11:34;;;;;;;;;13.00;5.00;;;;;12.03;68.29;100395.66;4978038;28;45402;-64
2024/01/04 11:13:59;;;;;;;;;7.33;3.33;;;;;11.79;68.35;100370.47;4976267;28;45434;-66
2024/01/04 11:16:33;;;;;;;;;5.67;4.67;;;;;11.88;68.69;100390.53;4977544;28;45423;-65
2024/01/04 11:19:13;;;;;;;;;10.33;5.00;;;;;11.86;68.95;100387.00;4976757;28;45470;-64
2024/01/04 11:21:38;;;;;;;;;12.67;5.00;;;;;11.83;69.16;100390.53;4975757;28;45366;-65
2024/01/04 11:24:07;;;;;;;;;8.67;4.33;;;;;11.75;69.45;100374.00;4978810;28;45933;-63